createdAt,value
2022-12-31T00:02:20.759Z,27.20
2022-12-31T00:04:47.977Z,30.33
2022-12-31T00:07:15.063Z,34.10
2022-12-31T00:09:42.199Z,33.58
2022-12-31T00:12:09.350Z,30.45
2022-12-31T00:14:36.641Z,31.45
2022-12-31T00:17:03.790Z,28.65
2022-12-31T00:19:30.993Z,30.35
2022-12-31T00:21:58.056Z,30.67
2022-12-31T00:24:25.212Z,31.45
2022-12-31T00:26:52.294Z,28.13
2022-12-31T00:29:19.357Z,32.53
2022-12-31T00:31:46.454Z,33.85
2022-12-31T00:34:13.624Z,31.15
2022-12-31T00:36:42.518Z,32.45
2022-12-31T00:39:10.504Z,32.33
2022-12-31T00:41:37.892Z,30.73
2022-12-31T00:44:05.528Z,31.90
2022-12-31T00:46:32.770Z,34.50
2022-12-31T00:48:59.942Z,29.13
2022-12-31T00:51:27.783Z,28.52
2022-12-31T00:53:56.535Z,31.20
2022-12-31T00:56:26.870Z,31.55
2022-12-31T00:58:54.236Z,33.72
2022-12-31T01:01:36.168Z,31.58
2022-12-31T01:04:16.878Z,31.42
2022-12-31T01:06:44.438Z,35.40
2022-12-31T01:09:13.734Z,31.15
2022-12-31T01:11:41.022Z,31.65
2022-12-31T01:14:11.799Z,34.47
2022-12-31T01:16:53.388Z,31.92
2022-12-31T01:19:29.099Z,33.83
2022-12-31T01:21:57.067Z,34.22
2022-12-31T01:24:24.622Z,33.00
2022-12-31T01:26:51.907Z,33.08
2022-12-31T01:29:19.195Z,33.15
2022-12-31T01:31:46.337Z,36.05
2022-12-31T01:34:13.477Z,35.40
2022-12-31T01:36:40.569Z,33.13
2022-12-31T01:39:08.732Z,31.27
2022-12-31T01:41:38.711Z,34.45
2022-12-31T01:44:11.690Z,33.70
2022-12-31T01:46:42.487Z,34.30
2022-12-31T01:49:34.316Z,36.63
2022-12-31T01:52:08.849Z,35.13
2022-12-31T01:54:44.593Z,34.80
2022-12-31T01:57:12.732Z,33.65
2022-12-31T01:59:41.020Z,34.88
2022-12-31T02:02:08.235Z,34.20
2022-12-31T02:04:35.545Z,33.53
2022-12-31T02:07:05.290Z,33.97
2022-12-31T02:09:34.486Z,35.25
2022-12-31T02:12:01.623Z,36.08
2022-12-31T02:14:50.679Z,36.20
2022-12-31T02:17:34.037Z,36.65
2022-12-31T02:20:19.299Z,36.72
2022-12-31T02:23:07.852Z,38.58
2022-12-31T02:25:52.500Z,37.10
2022-12-31T02:28:35.461Z,37.15
2022-12-31T02:31:18.404Z,35.60
2022-12-31T02:33:54.528Z,36.10
2022-12-31T02:36:25.596Z,37.22
2022-12-31T02:38:54.705Z,37.80
2022-12-31T02:41:40.484Z,38.67
2022-12-31T02:44:25.982Z,38.22
2022-12-31T02:47:08.134Z,36.22
2022-12-31T02:50:15.719Z,36.72
2022-12-31T02:53:14.097Z,34.35
2022-12-31T02:56:08.358Z,38.33
2022-12-31T02:59:31.550Z,38.85
2022-12-31T03:02:15.683Z,39.38
2022-12-31T03:04:47.427Z,37.47
2022-12-31T03:07:20.004Z,41.75
2022-12-31T03:09:47.203Z,40.47
2022-12-31T03:12:34.075Z,37.70
2022-12-31T03:15:01.691Z,38.25
2022-12-31T03:17:28.856Z,39.92
2022-12-31T03:20:14.607Z,39.08
2022-12-31T03:22:43.735Z,38.33
2022-12-31T03:25:31.039Z,40.85
2022-12-31T03:27:58.929Z,39.10
2022-12-31T03:30:26.709Z,39.28
2022-12-31T03:32:56.151Z,41.80
2022-12-31T03:35:25.298Z,39.70
2022-12-31T03:37:53.246Z,40.97
2022-12-31T03:40:22.195Z,40.85
2022-12-31T03:42:49.365Z,39.38
2022-12-31T03:45:16.651Z,36.17
2022-12-31T03:47:44.004Z,37.97
2022-12-31T03:50:12.638Z,36.83
2022-12-31T03:52:39.886Z,35.90
2022-12-31T03:55:08.063Z,37.47
2022-12-31T03:57:35.672Z,35.95
2022-12-31T04:00:06.214Z,37.10
2022-12-31T04:02:34.483Z,34.53
2022-12-31T04:05:01.877Z,36.42
2022-12-31T04:07:30.179Z,34.65
2022-12-31T04:09:57.558Z,34.47
2022-12-31T04:12:24.940Z,33.72
2022-12-31T04:14:52.024Z,33.58
2022-12-31T04:17:19.121Z,32.47
2022-12-31T04:19:46.294Z,32.60
2022-12-31T04:22:13.438Z,33.83
2022-12-31T04:24:42.721Z,33.63
2022-12-31T04:27:10.969Z,30.75
2022-12-31T04:29:38.235Z,33.70
2022-12-31T04:32:06.599Z,32.58
2022-12-31T04:34:34.268Z,29.95
2022-12-31T04:37:03.235Z,32.38
2022-12-31T04:39:30.594Z,30.25
2022-12-31T04:41:57.653Z,29.50
2022-12-31T04:44:24.782Z,25.00
2022-12-31T04:46:51.930Z,24.73
2022-12-31T04:49:19.117Z,22.23
2022-12-31T04:51:46.242Z,22.80
2022-12-31T04:54:13.328Z,22.17
2022-12-31T04:56:40.438Z,21.92
2022-12-31T04:59:08.780Z,19.42
2022-12-31T05:01:36.740Z,18.85
2022-12-31T05:04:04.032Z,18.45
2022-12-31T05:06:31.335Z,17.75
2022-12-31T05:08:58.436Z,17.60
2022-12-31T05:11:25.523Z,17.98
2022-12-31T05:13:52.791Z,16.00
2022-12-31T05:16:19.972Z,15.20
2022-12-31T05:18:47.168Z,18.25
2022-12-31T05:21:20.030Z,14.52
2022-12-31T05:23:47.449Z,14.87
2022-12-31T05:26:15.091Z,14.10
2022-12-31T05:28:42.353Z,16.33
2022-12-31T05:31:10.131Z,15.02
2022-12-31T05:33:37.274Z,16.25
2022-12-31T05:36:04.835Z,15.60
2022-12-31T05:38:33.176Z,17.30
2022-12-31T05:41:02.945Z,16.08
2022-12-31T05:43:30.752Z,14.15
2022-12-31T05:46:04.035Z,14.32
2022-12-31T05:48:31.839Z,14.40
2022-12-31T05:50:59.050Z,13.15
2022-12-31T05:53:26.162Z,14.45
2022-12-31T05:55:53.293Z,14.35
2022-12-31T05:58:20.405Z,14.68
2022-12-31T06:00:47.506Z,14.00
2022-12-31T06:03:14.692Z,13.27
2022-12-31T06:05:42.820Z,14.07
2022-12-31T06:08:11.248Z,14.38
2022-12-31T06:10:40.115Z,14.27
2022-12-31T06:13:08.024Z,14.00
2022-12-31T06:15:39.382Z,13.90
2022-12-31T06:18:07.057Z,13.63
2022-12-31T06:20:36.926Z,12.07
2022-12-31T06:23:04.630Z,12.43
2022-12-31T06:25:32.130Z,12.85
2022-12-31T06:27:59.231Z,13.48
2022-12-31T06:30:26.306Z,12.52
2022-12-31T06:32:55.007Z,13.05
2022-12-31T06:35:22.327Z,11.85
2022-12-31T06:37:52.112Z,12.25
2022-12-31T06:40:19.224Z,13.00
2022-12-31T06:42:46.307Z,11.55
2022-12-31T06:45:13.395Z,13.10
2022-12-31T06:47:40.596Z,13.98
2022-12-31T06:50:08.331Z,12.60
2022-12-31T06:52:35.450Z,11.90
2022-12-31T06:55:03.050Z,13.65
2022-12-31T06:57:30.770Z,11.23
2022-12-31T06:59:59.542Z,11.68
2022-12-31T07:02:48.206Z,11.10
2022-12-31T07:05:24.217Z,12.07
2022-12-31T07:08:33.344Z,11.77
2022-12-31T07:11:10.140Z,12.60
2022-12-31T07:13:55.639Z,11.40
2022-12-31T07:16:36.031Z,12.15
2022-12-31T07:19:28.838Z,11.43
2022-12-31T07:21:58.846Z,10.93
2022-12-31T07:24:26.364Z,12.63
2022-12-31T07:26:57.013Z,11.38
2022-12-31T07:29:36.206Z,11.60
2022-12-31T07:32:06.065Z,11.18
2022-12-31T07:35:11.509Z,9.80
2022-12-31T07:37:55.443Z,11.02
2022-12-31T07:40:40.646Z,10.05
2022-12-31T07:43:22.801Z,11.20
2022-12-31T07:46:01.732Z,9.90
2022-12-31T07:48:29.837Z,11.23
2022-12-31T07:50:57.756Z,10.18
2022-12-31T07:53:25.653Z,11.13
2022-12-31T07:55:59.716Z,10.32
2022-12-31T07:58:37.988Z,10.25
2022-12-31T08:01:06.650Z,10.07
2022-12-31T08:03:41.595Z,10.38
2022-12-31T08:06:32.772Z,9.68
2022-12-31T08:09:06.743Z,10.55
2022-12-31T08:11:52.982Z,11.38
2022-12-31T08:14:20.273Z,10.10
2022-12-31T08:16:47.815Z,11.52
2022-12-31T08:19:27.162Z,12.05
2022-12-31T08:22:06.182Z,12.43
2022-12-31T08:25:07.570Z,12.93
2022-12-31T08:27:47.542Z,12.02
2022-12-31T08:30:20.860Z,11.88
2022-12-31T08:33:15.370Z,12.20
2022-12-31T08:36:10.201Z,12.00
2022-12-31T08:39:07.048Z,14.55
2022-12-31T08:41:44.219Z,14.65
2022-12-31T08:44:29.324Z,11.70
2022-12-31T08:47:02.795Z,11.73
2022-12-31T08:49:32.180Z,10.67
2022-12-31T08:52:00.291Z,10.15
2022-12-31T08:54:27.771Z,10.57
2022-12-31T08:57:07.579Z,11.95
2022-12-31T08:59:51.000Z,10.98
2022-12-31T09:02:51.875Z,11.93
2022-12-31T09:05:24.878Z,13.43
2022-12-31T09:08:36.860Z,12.18
2022-12-31T09:11:22.578Z,11.82
2022-12-31T09:14:21.479Z,12.18
2022-12-31T09:16:53.873Z,11.88
2022-12-31T09:19:21.033Z,11.80
2022-12-31T09:21:48.431Z,11.93
2022-12-31T09:24:16.299Z,13.07
2022-12-31T09:27:25.451Z,12.02
2022-12-31T09:30:01.725Z,12.80
2022-12-31T09:32:34.846Z,14.00
2022-12-31T09:35:11.171Z,12.00
2022-12-31T09:37:48.711Z,15.63
2022-12-31T09:40:49.153Z,14.07
2022-12-31T09:43:38.029Z,13.00
2022-12-31T09:46:41.820Z,13.85
2022-12-31T09:49:45.953Z,14.38
2022-12-31T09:52:31.699Z,12.25
2022-12-31T09:55:07.642Z,15.07
2022-12-31T09:57:42.625Z,14.95
2022-12-31T10:00:48.950Z,16.42
2022-12-31T10:03:40.667Z,16.92
2022-12-31T10:06:28.623Z,16.33
2022-12-31T10:09:06.712Z,16.63
2022-12-31T10:12:03.856Z,15.82
2022-12-31T10:14:38.117Z,15.70
2022-12-31T10:17:20.079Z,16.88
2022-12-31T10:19:50.179Z,17.92
2022-12-31T10:22:30.808Z,18.52
2022-12-31T10:25:03.957Z,16.95
2022-12-31T10:27:37.142Z,18.83
2022-12-31T10:30:15.279Z,19.95
2022-12-31T10:33:18.202Z,19.50
2022-12-31T10:35:56.209Z,19.20
2022-12-31T10:38:38.164Z,20.92
2022-12-31T10:41:11.276Z,19.88
2022-12-31T10:43:53.703Z,20.13
2022-12-31T10:46:23.029Z,19.25
2022-12-31T10:49:13.523Z,19.30
2022-12-31T10:51:53.897Z,19.98
2022-12-31T10:54:57.946Z,21.15
2022-12-31T10:57:49.643Z,37.28
2022-12-31T11:00:19.695Z,23.77
2022-12-31T11:03:38.583Z,19.65
2022-12-31T11:06:53.698Z,19.70
2022-12-31T11:09:45.192Z,19.00
2022-12-31T11:12:43.259Z,18.00
2022-12-31T11:15:22.207Z,19.80
2022-12-31T11:18:07.462Z,18.27
2022-12-31T11:20:46.536Z,20.40
2022-12-31T11:23:52.810Z,18.63
2022-12-31T11:26:35.012Z,18.83
2022-12-31T11:29:17.526Z,20.13
2022-12-31T11:32:14.121Z,20.33
2022-12-31T11:35:18.073Z,20.92
2022-12-31T11:38:18.106Z,21.60
2022-12-31T11:41:03.866Z,20.42
2022-12-31T11:43:49.714Z,20.33
2022-12-31T11:47:05.699Z,20.80
2022-12-31T11:50:15.845Z,19.40
2022-12-31T11:52:52.053Z,21.63
2022-12-31T11:55:35.058Z,20.23
2022-12-31T11:58:16.144Z,19.10
2022-12-31T12:00:57.233Z,23.73
2022-12-31T12:03:24.687Z,20.77
2022-12-31T12:05:51.895Z,20.02
2022-12-31T12:08:19.816Z,19.73
2022-12-31T12:10:50.855Z,20.42
2022-12-31T12:13:17.905Z,19.33
2022-12-31T12:15:48.852Z,21.20
2022-12-31T12:18:25.082Z,20.50
2022-12-31T12:20:52.899Z,19.67
2022-12-31T12:23:27.058Z,20.05
2022-12-31T12:25:54.211Z,19.98
2022-12-31T12:28:24.556Z,19.88
2022-12-31T12:30:56.931Z,19.90
2022-12-31T12:33:24.992Z,23.65
2022-12-31T12:35:52.298Z,22.00
2022-12-31T12:38:23.133Z,21.48
2022-12-31T12:40:59.788Z,20.63
2022-12-31T12:43:37.279Z,20.27
2022-12-31T12:46:07.743Z,24.17
2022-12-31T12:48:41.315Z,22.48
2022-12-31T12:51:37.216Z,24.15
2022-12-31T12:54:41.404Z,23.48
2022-12-31T12:57:41.736Z,23.77
2022-12-31T13:00:17.733Z,23.90
2022-12-31T13:03:21.970Z,23.05
2022-12-31T13:06:10.281Z,24.45
2022-12-31T13:08:54.362Z,24.45
2022-12-31T13:11:40.401Z,25.75
2022-12-31T13:14:23.385Z,33.35
2022-12-31T13:16:59.699Z,31.93
2022-12-31T13:19:35.666Z,32.10
2022-12-31T13:22:16.301Z,27.10
2022-12-31T13:24:49.096Z,25.52
2022-12-31T13:27:38.145Z,25.95
2022-12-31T13:30:15.239Z,29.40
2022-12-31T13:32:50.184Z,26.63
2022-12-31T13:35:28.137Z,26.33
2022-12-31T13:38:05.759Z,28.33
2022-12-31T13:40:46.228Z,27.83
2022-12-31T13:43:20.646Z,26.65
2022-12-31T13:46:00.655Z,28.70
2022-12-31T13:48:35.567Z,27.20
2022-12-31T13:51:14.179Z,27.80
2022-12-31T13:54:21.996Z,26.33
2022-12-31T13:56:52.059Z,26.35
2022-12-31T13:59:39.545Z,27.77
2022-12-31T14:02:34.379Z,28.75
2022-12-31T14:05:23.262Z,27.95
2022-12-31T14:08:01.844Z,26.63
2022-12-31T14:10:48.625Z,26.58
2022-12-31T14:13:52.669Z,30.13
2022-12-31T14:16:35.422Z,30.23
2022-12-31T14:19:40.875Z,31.50
2022-12-31T14:22:30.020Z,29.60
2022-12-31T14:24:59.881Z,27.65
2022-12-31T14:27:32.933Z,30.58
2022-12-31T14:30:06.304Z,31.25
2022-12-31T14:33:05.781Z,31.70
2022-12-31T14:35:50.855Z,29.42
2022-12-31T14:38:30.383Z,29.92
2022-12-31T14:41:15.709Z,31.23
2022-12-31T14:44:16.690Z,34.65
2022-12-31T14:47:17.631Z,29.83
2022-12-31T14:50:01.165Z,29.20
2022-12-31T14:52:47.433Z,31.35
2022-12-31T14:55:17.141Z,31.73
2022-12-31T14:58:25.793Z,30.08
2022-12-31T15:00:32.469Z,30.52
2022-12-31T15:03:04.515Z,30.42
2022-12-31T15:05:37.435Z,30.85
2022-12-31T15:08:33.242Z,31.38
2022-12-31T15:11:17.499Z,33.47
2022-12-31T15:13:51.383Z,31.50
2022-12-31T15:16:27.428Z,31.55
2022-12-31T15:19:09.938Z,31.48
2022-12-31T15:21:51.448Z,33.15
2022-12-31T15:24:24.372Z,30.45
2022-12-31T15:26:58.042Z,33.95
2022-12-31T15:31:59.970Z,31.17
2022-12-31T15:34:30.874Z,33.17
2022-12-31T15:37:00.715Z,31.85
2022-12-31T15:39:30.640Z,33.05
2022-12-31T15:45:00.555Z,32.45
2022-12-31T15:47:36.453Z,34.35
2022-12-31T15:50:08.051Z,32.80
2022-12-31T15:52:44.342Z,31.83
2022-12-31T15:55:31.850Z,31.13
2022-12-31T15:58:05.140Z,32.65
2022-12-31T16:01:14.005Z,32.60
2022-12-31T16:03:48.023Z,31.55
2022-12-31T16:06:16.639Z,32.90
2022-12-31T16:08:46.601Z,32.72
2022-12-31T16:11:14.643Z,34.45
2022-12-31T16:13:48.717Z,33.20
2022-12-31T16:16:31.476Z,30.90
2022-12-31T16:19:00.312Z,33.05
2022-12-31T16:21:34.920Z,33.50
2022-12-31T16:24:03.975Z,31.80
2022-12-31T16:26:43.740Z,37.03
2022-12-31T16:29:16.222Z,35.50
2022-12-31T16:31:45.323Z,32.92
2022-12-31T16:34:18.520Z,34.83
2022-12-31T16:36:56.703Z,31.67
2022-12-31T16:39:26.577Z,33.75
2022-12-31T16:42:17.793Z,32.90
2022-12-31T16:44:45.346Z,31.70
2022-12-31T16:47:38.209Z,30.15
2022-12-31T16:50:13.457Z,32.30
2022-12-31T16:52:45.888Z,32.50
2022-12-31T16:55:23.232Z,31.98
2022-12-31T16:57:55.653Z,33.03
2022-12-31T17:00:25.296Z,34.47
2022-12-31T17:03:23.530Z,36.47
2022-12-31T17:06:14.064Z,35.03
2022-12-31T17:08:56.102Z,37.28
2022-12-31T17:11:34.172Z,36.15
2022-12-31T17:14:14.237Z,35.47
2022-12-31T17:17:01.362Z,36.13
2022-12-31T17:19:37.245Z,34.55
2022-12-31T17:22:10.093Z,37.83
2022-12-31T17:24:38.438Z,35.13
2022-12-31T17:27:08.032Z,37.33
2022-12-31T17:29:35.619Z,36.10
2022-12-31T17:32:25.432Z,36.40
2022-12-31T17:34:52.545Z,32.45
2022-12-31T17:37:28.021Z,35.63
2022-12-31T17:40:32.239Z,37.05
2022-12-31T17:42:49.169Z,35.33
2022-12-31T17:45:20.956Z,35.67
2022-12-31T17:47:51.154Z,35.97
2022-12-31T17:50:28.177Z,34.75
2022-12-31T17:53:10.777Z,41.83
2022-12-31T17:55:38.414Z,41.20
2022-12-31T17:58:06.617Z,38.85
2022-12-31T18:00:36.844Z,37.15
2022-12-31T18:03:04.110Z,35.83
2022-12-31T18:05:31.242Z,40.00
2022-12-31T18:07:58.323Z,41.03
2022-12-31T18:10:27.689Z,36.60
2022-12-31T18:12:54.863Z,37.38
2022-12-31T18:15:24.379Z,37.33
2022-12-31T18:17:51.592Z,37.28
2022-12-31T18:20:18.938Z,38.20
2022-12-31T18:22:46.049Z,38.35
2022-12-31T18:25:21.977Z,38.33
2022-12-31T18:27:50.834Z,39.67
2022-12-31T18:30:18.411Z,40.75
2022-12-31T18:32:46.241Z,40.83
2022-12-31T18:38:12.369Z,39.67
2022-12-31T18:40:44.028Z,39.70
2022-12-31T18:43:19.157Z,38.22
2022-12-31T18:45:47.680Z,40.72
2022-12-31T18:48:15.413Z,39.72
2022-12-31T18:50:43.018Z,42.50
2022-12-31T18:53:19.703Z,40.53
2022-12-31T18:55:53.248Z,40.47
2022-12-31T18:58:21.172Z,42.05
2022-12-31T19:00:49.516Z,42.13
2022-12-31T19:03:21.897Z,43.58
2022-12-31T19:05:50.741Z,46.55
2022-12-31T19:08:19.299Z,43.47
2022-12-31T19:10:48.313Z,42.50
2022-12-31T19:13:17.889Z,44.60
2022-12-31T19:15:50.067Z,42.70
2022-12-31T19:18:17.286Z,44.03
2022-12-31T19:20:44.667Z,46.65
2022-12-31T19:23:20.310Z,43.25
2022-12-31T19:25:49.109Z,46.15
2022-12-31T19:28:19.836Z,45.75
2022-12-31T19:30:47.221Z,46.75
2022-12-31T19:33:15.845Z,41.10
2022-12-31T19:35:44.055Z,48.35
2022-12-31T19:38:25.722Z,47.63
2022-12-31T19:40:53.651Z,48.88
2022-12-31T19:43:22.933Z,48.08
2022-12-31T19:45:51.288Z,47.80
2022-12-31T19:48:25.855Z,51.13
2022-12-31T19:50:57.491Z,46.28
2022-12-31T19:53:26.811Z,47.85
2022-12-31T19:55:54.221Z,49.97
2022-12-31T19:58:25.556Z,48.97
2022-12-31T20:01:02.379Z,50.05
2022-12-31T20:03:32.775Z,51.22
2022-12-31T20:06:08.424Z,49.63
2022-12-31T20:08:37.564Z,48.65
2022-12-31T20:11:19.164Z,49.88
2022-12-31T20:13:47.560Z,52.67
2022-12-31T20:16:17.313Z,52.03
2022-12-31T20:18:46.056Z,55.85
2022-12-31T20:21:17.629Z,53.67
2022-12-31T20:23:45.126Z,54.60
2022-12-31T20:26:12.627Z,55.38
2022-12-31T20:28:39.946Z,53.90
2022-12-31T20:31:16.227Z,54.70
2022-12-31T20:33:43.917Z,55.17
2022-12-31T20:36:13.946Z,52.10
2022-12-31T20:38:41.442Z,53.85
2022-12-31T20:41:12.613Z,55.78
2022-12-31T20:43:40.491Z,54.15
2022-12-31T20:46:14.816Z,54.53
2022-12-31T20:48:43.114Z,54.10
2022-12-31T20:51:10.507Z,53.15
2022-12-31T20:53:37.614Z,49.97
2022-12-31T20:56:05.910Z,55.42
2022-12-31T20:58:33.124Z,54.45
2022-12-31T21:01:00.510Z,53.95
2022-12-31T21:04:03.741Z,55.13
2022-12-31T21:06:15.365Z,54.92
2022-12-31T21:08:42.781Z,52.50
2022-12-31T21:11:28.728Z,49.47
2022-12-31T21:13:57.429Z,50.13
2022-12-31T21:16:25.392Z,52.75
2022-12-31T21:18:52.725Z,54.38
2022-12-31T21:21:20.226Z,53.33
2022-12-31T21:23:47.292Z,51.88
2022-12-31T21:26:15.099Z,54.60
2022-12-31T21:28:42.902Z,57.03
2022-12-31T21:31:12.264Z,54.35
2022-12-31T21:33:39.552Z,54.30
2022-12-31T21:36:06.846Z,50.78
2022-12-31T21:38:36.327Z,51.17
2022-12-31T21:41:04.723Z,50.65
2022-12-31T21:43:31.929Z,56.95
2022-12-31T21:46:01.505Z,50.55
2022-12-31T21:48:28.665Z,53.03
2022-12-31T21:51:08.880Z,58.15
2022-12-31T21:53:37.499Z,57.13
2022-12-31T21:56:08.529Z,57.08
2022-12-31T21:58:40.599Z,55.25
2022-12-31T22:01:28.523Z,55.58
2022-12-31T22:03:55.700Z,54.70
2022-12-31T22:06:24.723Z,55.28
2022-12-31T22:08:54.220Z,55.53
2022-12-31T22:11:23.998Z,64.68
2022-12-31T22:13:51.231Z,58.95
2022-12-31T22:16:20.168Z,60.47
2022-12-31T22:18:47.848Z,59.47
2022-12-31T22:21:21.898Z,60.30
2022-12-31T22:23:51.983Z,60.97
2022-12-31T22:26:21.940Z,65.30
2022-12-31T22:28:49.117Z,72.47
2022-12-31T22:31:24.331Z,63.85
2022-12-31T22:33:52.238Z,76.32
2022-12-31T22:36:22.203Z,72.13
2022-12-31T22:38:51.424Z,59.30
2022-12-31T22:41:20.664Z,56.90
2022-12-31T22:43:50.370Z,55.55
2022-12-31T22:46:26.238Z,53.38
2022-12-31T22:48:56.911Z,56.80
2022-12-31T22:51:24.024Z,70.38
2022-12-31T22:53:51.197Z,74.25
2022-12-31T22:56:19.116Z,79.03
2022-12-31T22:58:46.975Z,70.38
2022-12-31T23:01:19.074Z,63.38
2022-12-31T23:03:47.548Z,60.00
2022-12-31T23:06:15.461Z,57.30
2022-12-31T23:09:02.628Z,55.63
2022-12-31T23:11:30.098Z,52.00
2022-12-31T23:14:15.587Z,59.20
2022-12-31T23:17:30.297Z,57.17
2022-12-31T23:20:07.004Z,67.15
2022-12-31T23:22:52.807Z,93.20
2022-12-31T23:25:20.257Z,142.98
2022-12-31T23:27:47.374Z,160.30
2022-12-31T23:30:14.570Z,110.65
2022-12-31T23:32:41.687Z,125.82
2022-12-31T23:35:10.018Z,108.93
2022-12-31T23:37:37.456Z,98.65
2022-12-31T23:40:05.151Z,86.20
2022-12-31T23:42:32.245Z,89.50
2022-12-31T23:44:59.368Z,85.57
2022-12-31T23:47:26.417Z,82.40
2022-12-31T23:49:53.708Z,84.97
2022-12-31T23:52:20.824Z,78.80
2022-12-31T23:54:47.993Z,77.15
2022-12-31T23:57:15.132Z,107.22
2022-12-31T23:59:42.246Z,111.05
